createdAt,value
2022-10-29T06:15:39.976Z,13.04
2022-10-29T06:25:40.050Z,13.16
2022-10-29T06:35:40.054Z,13.49
2022-10-29T06:45:39.908Z,13.35
2022-10-29T06:55:39.910Z,13.32
2022-10-29T07:05:39.871Z,13.20
2022-10-29T07:15:39.997Z,13.05
2022-10-29T07:25:39.935Z,13.12
2022-10-29T07:35:40.089Z,13.53
2022-10-29T07:45:39.966Z,13.92
2022-10-29T07:55:39.939Z,14.38
2022-10-29T08:05:42.577Z,14.58
2022-10-29T08:15:39.880Z,15.68
2022-10-29T08:25:40.021Z,16.53
2022-10-29T08:35:39.977Z,16.69
2022-10-29T08:45:40.006Z,16.57
2022-10-29T08:55:39.978Z,17.12
2022-10-29T09:05:39.991Z,18.05
2022-10-29T09:15:40.023Z,19.00
2022-10-29T09:25:40.033Z,19.42
2022-10-29T09:35:39.939Z,18.79
2022-10-29T09:45:40.039Z,19.18
2022-10-29T09:55:40.055Z,19.28
2022-10-29T10:05:40.216Z,19.66
2022-10-29T10:15:40.139Z,19.42
2022-10-29T10:25:40.188Z,19.02
2022-10-29T10:35:40.394Z,18.85
2022-10-29T10:45:40.299Z,18.93
2022-10-29T10:55:40.277Z,18.87
2022-10-29T11:05:40.325Z,18.72
2022-10-29T11:15:40.356Z,19.36
2022-10-29T11:25:40.270Z,19.09
2022-10-29T11:35:40.292Z,18.91
2022-10-29T11:45:40.250Z,18.99
2022-10-29T11:55:40.239Z,19.31
2022-10-29T12:05:40.175Z,19.23
2022-10-29T12:15:40.323Z,19.43
2022-10-29T12:25:40.358Z,19.88
2022-10-29T12:35:40.288Z,20.37
2022-10-29T12:45:59.528Z,20.15
2022-10-29T12:55:40.392Z,19.77
2022-10-29T13:05:40.366Z,19.80
2022-10-29T13:15:40.384Z,20.57
2022-10-29T13:25:40.451Z,20.36
2022-10-29T13:35:40.246Z,20.72
2022-10-29T13:45:40.345Z,20.22
2022-10-29T13:55:40.398Z,20.49
2022-10-29T14:05:40.441Z,20.61
2022-10-29T14:15:40.315Z,20.03
2022-10-29T14:25:40.461Z,19.69
2022-10-29T14:35:40.473Z,19.44
2022-10-29T14:45:40.411Z,19.40
2022-10-29T14:55:40.531Z,19.22
2022-10-29T15:05:40.383Z,19.83
2022-10-29T15:15:40.469Z,19.30
2022-10-29T15:25:40.548Z,19.16
2022-10-29T15:35:40.622Z,18.29
2022-10-29T15:45:40.677Z,17.70
2022-10-29T15:55:40.686Z,17.20
2022-10-29T16:05:40.614Z,16.92
2022-10-29T16:15:43.307Z,16.94
2022-10-29T16:25:40.595Z,17.33
2022-10-29T16:35:40.628Z,16.92
2022-10-29T16:45:40.754Z,16.51
2022-10-29T16:55:40.567Z,16.33
2022-10-29T17:05:40.579Z,15.92
2022-10-29T17:15:40.658Z,15.62
2022-10-29T17:25:40.727Z,15.78
2022-10-29T17:35:40.804Z,15.71
2022-10-29T17:45:40.730Z,15.44
2022-10-29T17:55:40.745Z,15.30
2022-10-29T18:05:40.719Z,15.86
2022-10-29T18:15:40.754Z,15.97
2022-10-29T18:25:40.774Z,16.13
2022-10-29T18:35:40.870Z,16.07
2022-10-29T18:45:40.888Z,15.63
2022-10-29T18:55:40.956Z,15.66
2022-10-29T19:05:41.121Z,16.10
2022-10-29T19:15:41.331Z,16.19
